ENRY

Moss , Rygge Airport

Rygge, Norway
METAR ENRY 190450Z AUTO 22010KT 190V250 9999NDV FEW047/// 15/13 Q1005
Observed Flight Rules
Sep-19 @ 04:50 UTC (23 minutes ago)
Wind Clouds
220° at 10 knots
  • Few at 4,700' AGL
Temperatures Readings
Current 15°C / 59°F
Dewpoint 13°C / 55°F
Humidity 88%
Altimeter 29.68" Hg
Pressure 1005 hPa
Elevation 53
METAR ENRY 190450Z AUTO 22010KT 190V250 9999NDV FEW047/// 15/13 Q1005
Observed Flight Rules
Sep-19 @ 04:50 UTC
(23 minutes ago)
Wind
220° at 10 knots
Clouds
  • Few at 4,700' AGL
Temperature Dewpoint
15°C / 59°F 13°C / 55°F
Humidity Altimeter Pressure
88% 29.68" Hg 1005 hPa